createdAt,value
2023-02-08T00:00:02.209Z,-2.21
2023-02-08T00:03:04.667Z,-2.28
2023-02-08T00:06:07.459Z,-2.39
2023-02-08T00:09:09.049Z,-2.43
2023-02-08T00:12:10.531Z,-2.52
2023-02-08T00:15:12.058Z,-2.57
2023-02-08T00:18:13.964Z,-2.61
2023-02-08T00:21:17.618Z,-2.69
2023-02-08T00:24:19.343Z,-2.72
2023-02-08T00:27:21.079Z,-2.75
2023-02-08T00:30:22.662Z,-2.82
2023-02-08T00:33:24.259Z,-2.95
2023-02-08T00:36:25.710Z,-2.98
2023-02-08T00:39:27.129Z,-2.97
2023-02-08T00:42:29.516Z,-2.99
2023-02-08T00:45:32.882Z,-2.99
2023-02-08T00:48:34.326Z,-2.90
2023-02-08T00:51:35.869Z,-2.94
2023-02-08T00:54:37.479Z,-3.03
2023-02-08T00:57:40.248Z,-3.06
2023-02-08T01:00:41.987Z,-3.08
2023-02-08T01:03:44.273Z,-3.06
2023-02-08T01:06:46.031Z,-3.10
2023-02-08T01:09:47.496Z,-3.11
2023-02-08T01:12:48.950Z,-3.11
2023-02-08T01:15:50.910Z,-3.08
2023-02-08T01:18:54.286Z,-3.10
2023-02-08T01:21:56.328Z,-3.10
2023-02-08T01:24:58.271Z,-3.14
2023-02-08T01:27:59.841Z,-3.16
2023-02-08T01:31:08.441Z,-3.22
2023-02-08T01:34:11.420Z,-3.18
2023-02-08T01:37:12.919Z,-3.16
2023-02-08T01:40:14.486Z,-3.24
2023-02-08T01:43:22.579Z,-3.20
2023-02-08T01:46:24.122Z,-3.24
2023-02-08T01:49:29.954Z,-2.96
2023-02-08T01:52:31.531Z,-2.88
2023-02-08T01:55:38.320Z,-2.97
2023-02-08T01:58:44.873Z,-2.97
2023-02-08T02:01:48.998Z,-2.98
2023-02-08T02:04:52.312Z,-3.00
2023-02-08T02:07:55.641Z,-3.00
2023-02-08T02:10:57.090Z,-3.02
2023-02-08T02:13:59.082Z,-3.10
2023-02-08T02:17:01.483Z,-3.16
2023-02-08T02:20:24.261Z,-3.14
2023-02-08T02:23:50.111Z,-3.15
2023-02-08T02:27:25.013Z,-3.23
2023-02-08T02:30:50.941Z,-3.20
2023-02-08T02:34:01.308Z,-3.13
2023-02-08T02:37:10.494Z,-3.19
2023-02-08T02:40:14.757Z,-3.25
2023-02-08T02:43:42.334Z,-3.30
2023-02-08T02:46:52.657Z,-3.38
2023-02-08T02:50:02.581Z,-3.37
2023-02-08T02:53:11.325Z,-3.29
2023-02-08T02:56:18.112Z,-3.12
2023-02-08T02:59:20.175Z,-3.12
2023-02-08T03:02:22.069Z,-3.11
2023-02-08T03:05:23.618Z,-2.98
2023-02-08T03:08:46.172Z,-3.00
2023-02-08T03:12:06.963Z,-3.07
2023-02-08T03:15:17.625Z,-2.98
2023-02-08T03:19:05.955Z,-3.07
2023-02-08T03:22:25.720Z,-3.13
2023-02-08T03:25:36.635Z,-3.15
2023-02-08T03:28:46.873Z,-3.17
2023-02-08T03:31:56.093Z,-3.18
2023-02-08T03:35:04.682Z,-3.18
2023-02-08T03:38:13.142Z,-3.09
2023-02-08T03:41:22.713Z,-3.14
2023-02-08T03:44:37.135Z,-3.20
2023-02-08T03:47:42.865Z,-3.31
2023-02-08T03:50:48.184Z,-3.41
2023-02-08T03:53:53.583Z,-3.51
2023-02-08T03:57:08.007Z,-3.45
2023-02-08T04:00:13.224Z,-3.48
2023-02-08T04:03:23.399Z,-3.57
2023-02-08T04:06:25.047Z,-3.62
2023-02-08T04:09:26.527Z,-3.72
2023-02-08T04:12:27.971Z,-3.73
2023-02-08T04:15:29.429Z,-3.58
2023-02-08T04:18:31.195Z,-3.48
2023-02-08T04:21:33.288Z,-3.28
2023-02-08T04:24:34.724Z,-3.01
2023-02-08T04:27:36.273Z,-2.90
2023-02-08T04:30:37.754Z,-2.67
2023-02-08T04:33:39.261Z,-2.85
2023-02-08T04:36:41.045Z,-2.90
2023-02-08T04:39:42.537Z,-2.87
2023-02-08T04:42:43.992Z,-2.67
2023-02-08T04:45:45.507Z,-2.53
2023-02-08T04:48:46.981Z,-2.51
2023-02-08T04:51:48.412Z,-2.62
2023-02-08T04:54:49.941Z,-2.60
2023-02-08T04:57:51.608Z,-2.62
2023-02-08T05:00:53.050Z,-2.68
2023-02-08T05:03:55.014Z,-2.72
2023-02-08T05:06:56.462Z,-2.77
2023-02-08T05:09:57.915Z,-2.69
2023-02-08T05:12:59.691Z,-2.53
2023-02-08T05:16:01.210Z,-2.41
2023-02-08T05:19:02.713Z,-2.42
2023-02-08T05:22:04.159Z,-2.48
2023-02-08T05:25:06.449Z,-2.46
2023-02-08T05:28:07.948Z,-2.46
2023-02-08T05:31:11.782Z,-2.47
2023-02-08T05:34:13.379Z,-2.48
2023-02-08T05:37:14.826Z,-2.53
2023-02-08T05:40:16.409Z,-2.60
2023-02-08T05:43:17.919Z,-2.55
2023-02-08T05:46:19.442Z,-2.46
2023-02-08T05:49:20.900Z,-2.49
2023-02-08T05:52:22.370Z,-2.49
2023-02-08T05:55:23.916Z,-2.59
2023-02-08T05:58:25.591Z,-2.43
2023-02-08T06:01:27.306Z,-2.40
2023-02-08T06:04:28.954Z,-2.52
2023-02-08T06:07:30.458Z,-2.56
2023-02-08T06:10:32.099Z,-2.64
2023-02-08T06:13:33.765Z,-2.68
2023-02-08T06:16:35.328Z,-2.61
2023-02-08T06:19:36.833Z,-2.58
2023-02-08T06:22:38.458Z,-2.56
2023-02-08T06:25:39.921Z,-2.55
2023-02-08T06:28:41.367Z,-2.60
2023-02-08T06:31:42.949Z,-2.64
2023-02-08T06:34:44.576Z,-2.60
2023-02-08T06:37:46.008Z,-2.57
2023-02-08T06:40:48.070Z,-2.47
2023-02-08T06:43:49.527Z,-2.48
2023-02-08T06:46:51.354Z,-2.70
2023-02-08T06:49:53.461Z,-2.75
2023-02-08T06:52:55.001Z,-2.61
2023-02-08T06:55:56.735Z,-2.66
2023-02-08T06:58:58.313Z,-2.56
2023-02-08T07:02:01.310Z,-2.42
2023-02-08T07:05:03.106Z,-2.33
2023-02-08T07:08:05.423Z,-2.38
2023-02-08T07:11:11.360Z,-2.45
2023-02-08T07:14:14.500Z,-2.32
2023-02-08T07:17:16.040Z,-2.14
2023-02-08T07:20:17.615Z,-2.21
2023-02-08T07:23:19.052Z,-2.26
2023-02-08T07:26:20.477Z,-2.21
2023-02-08T07:29:22.063Z,-2.10
2023-02-08T07:32:23.569Z,-1.81
2023-02-08T07:35:25.059Z,-1.79
2023-02-08T07:38:26.648Z,-1.65
2023-02-08T07:41:28.540Z,-1.53
2023-02-08T07:44:30.151Z,-1.46
2023-02-08T07:47:31.686Z,-1.40
2023-02-08T07:50:33.288Z,-1.43
2023-02-08T07:53:35.098Z,-1.66
2023-02-08T07:56:36.746Z,-1.85
2023-02-08T07:59:38.211Z,-1.99
2023-02-08T08:02:39.805Z,-2.13
2023-02-08T08:05:41.732Z,-2.22
2023-02-08T08:08:47.253Z,-2.33
2023-02-08T08:11:48.801Z,-2.35
2023-02-08T08:14:51.389Z,-2.40
2023-02-08T08:17:53.265Z,-2.47
2023-02-08T08:20:54.789Z,-2.49
2023-02-08T08:23:56.324Z,-2.34
2023-02-08T08:26:57.968Z,-2.17
2023-02-08T08:29:59.931Z,-2.12
2023-02-08T08:33:01.425Z,-2.14
2023-02-08T08:36:02.980Z,-2.10
2023-02-08T08:39:04.509Z,-2.04
2023-02-08T08:42:06.063Z,-1.95
2023-02-08T08:45:08.632Z,-1.87
2023-02-08T08:48:10.817Z,-1.77
2023-02-08T08:51:12.673Z,-1.73
2023-02-08T08:54:14.297Z,-1.65
2023-02-08T08:57:16.304Z,-1.55
2023-02-08T09:00:17.991Z,-1.61
2023-02-08T09:08:07.423Z,-1.48
2023-02-08T09:11:11.776Z,-1.38
2023-02-08T09:14:13.360Z,-1.49
2023-02-08T09:17:14.847Z,-1.61
2023-02-08T09:20:16.584Z,-1.55
2023-02-08T09:23:18.024Z,-1.40
2023-02-08T09:26:20.163Z,-1.32
2023-02-08T09:29:21.618Z,-1.28
2023-02-08T09:32:23.243Z,-1.17
2023-02-08T09:35:24.847Z,-1.10
2023-02-08T09:38:26.856Z,-1.06
2023-02-08T09:41:36.830Z,-0.97
2023-02-08T09:45:00.341Z,-0.89
2023-02-08T09:48:14.063Z,-0.87
2023-02-08T09:51:38.905Z,-0.70
2023-02-08T09:54:46.454Z,-0.66
2023-02-08T09:57:53.353Z,-0.59
2023-02-08T10:00:55.789Z,-0.50
2023-02-08T10:04:19.880Z,-0.48
2023-02-08T10:07:21.366Z,-0.43
2023-02-08T10:10:43.772Z,-0.30
2023-02-08T10:13:48.406Z,-0.26
2023-02-08T10:17:14.192Z,-0.25
2023-02-08T10:20:40.043Z,-0.16
2023-02-08T10:23:56.820Z,-0.06
2023-02-08T10:27:04.590Z,-0.07
2023-02-08T10:30:11.850Z,-0.05
2023-02-08T10:33:29.109Z,-0.03
2023-02-08T10:36:41.821Z,0.05
2023-02-08T10:39:43.787Z,0.15
2023-02-08T10:43:00.672Z,0.16
2023-02-08T10:46:08.379Z,0.32
2023-02-08T10:49:09.831Z,0.29
2023-02-08T10:52:11.372Z,0.36
2023-02-08T10:55:15.137Z,0.42
2023-02-08T10:58:20.240Z,0.44
2023-02-08T11:01:22.442Z,0.55
2023-02-08T11:04:24.491Z,0.70
2023-02-08T11:07:26.042Z,0.68
2023-02-08T11:10:27.780Z,0.76
2023-02-08T11:13:51.377Z,0.92
2023-02-08T11:16:57.198Z,0.91
2023-02-08T11:19:59.790Z,1.03
2023-02-08T11:23:01.431Z,1.18
2023-02-08T11:26:33.761Z,1.22
2023-02-08T11:29:35.272Z,1.25
2023-02-08T11:32:36.841Z,1.25
2023-02-08T11:35:38.389Z,1.23
2023-02-08T11:38:42.948Z,1.30
2023-02-08T11:41:47.668Z,1.30
2023-02-08T11:44:50.086Z,1.43
2023-02-08T11:47:52.487Z,1.46
2023-02-08T11:51:00.895Z,1.44
2023-02-08T11:54:04.551Z,1.54
2023-02-08T11:57:19.233Z,1.63
2023-02-08T12:00:25.382Z,1.82
2023-02-08T12:03:36.281Z,1.80
2023-02-08T12:06:43.966Z,1.69
2023-02-08T12:10:19.791Z,1.78
2023-02-08T12:13:36.396Z,1.92
2023-02-08T12:16:51.225Z,1.87
2023-02-08T12:20:23.162Z,2.00
2023-02-08T12:23:49.885Z,2.06
2023-02-08T12:27:00.454Z,2.20
2023-02-08T12:30:30.342Z,2.21
2023-02-08T12:33:33.518Z,2.35
2023-02-08T12:37:12.280Z,2.47
2023-02-08T12:40:49.702Z,2.45
2023-02-08T12:44:10.767Z,2.55
2023-02-08T12:47:33.549Z,2.52
2023-02-08T12:50:49.462Z,2.60
2023-02-08T12:53:56.144Z,2.53
2023-02-08T12:57:02.336Z,2.63
2023-02-08T13:00:15.670Z,2.71
2023-02-08T13:03:32.792Z,2.69
2023-02-08T13:06:43.504Z,2.67
2023-02-08T13:10:06.401Z,2.61
2023-02-08T13:13:19.224Z,2.66
2023-02-08T13:16:27.418Z,2.80
2023-02-08T13:19:48.188Z,2.81
2023-02-08T13:23:03.959Z,2.94
2023-02-08T13:26:19.542Z,3.03
2023-02-08T13:29:23.189Z,3.03
2023-02-08T13:32:52.324Z,3.10
2023-02-08T13:35:54.616Z,3.17
2023-02-08T13:38:59.478Z,3.05
2023-02-08T13:42:03.187Z,3.01
2023-02-08T13:45:06.355Z,3.11
2023-02-08T13:48:12.318Z,3.15
2023-02-08T13:51:28.971Z,3.11
2023-02-08T13:54:30.692Z,3.13
2023-02-08T13:57:55.634Z,3.14
2023-02-08T14:00:57.026Z,3.31
2023-02-08T14:04:07.652Z,3.25
2023-02-08T14:07:12.159Z,3.00
2023-02-08T14:10:24.830Z,2.76
2023-02-08T14:13:34.900Z,2.79
2023-02-08T14:16:39.621Z,2.84
2023-02-08T14:19:44.407Z,2.83
2023-02-08T14:22:55.212Z,2.94
2023-02-08T14:26:00.440Z,3.10
2023-02-08T14:29:05.169Z,3.27
2023-02-08T14:32:07.031Z,3.21
2023-02-08T14:35:11.565Z,3.37
2023-02-08T14:38:19.256Z,3.23
2023-02-08T14:41:44.882Z,3.16
2023-02-08T14:44:55.826Z,3.23
2023-02-08T14:48:05.183Z,3.20
2023-02-08T14:51:09.455Z,3.33
2023-02-08T14:54:21.861Z,3.47
2023-02-08T14:57:28.900Z,3.95
2023-02-08T15:00:35.349Z,4.28
2023-02-08T15:03:39.700Z,4.08
2023-02-08T15:07:11.396Z,3.87
2023-02-08T15:10:16.340Z,3.51
2023-02-08T15:13:24.145Z,3.30
2023-02-08T15:16:34.090Z,3.43
2023-02-08T15:19:43.102Z,3.36
2023-02-08T15:22:45.461Z,3.18
2023-02-08T15:26:02.992Z,2.87
2023-02-08T15:29:17.984Z,2.63
2023-02-08T15:32:22.666Z,2.54
2023-02-08T15:35:25.898Z,2.52
2023-02-08T15:38:29.242Z,2.39
2023-02-08T15:41:38.062Z,2.25
2023-02-08T15:44:43.769Z,2.08
2023-02-08T15:47:45.630Z,2.01
2023-02-08T15:50:47.808Z,1.94
2023-02-08T15:53:52.473Z,1.94
2023-02-08T15:57:02.316Z,1.88
2023-02-08T16:00:23.020Z,1.79
2023-02-08T16:03:26.489Z,1.68
2023-02-08T16:06:36.986Z,1.63
2023-02-08T16:09:38.754Z,1.54
2023-02-08T16:12:40.293Z,1.45
2023-02-08T16:15:45.608Z,1.41
2023-02-08T16:19:01.573Z,1.32
2023-02-08T16:22:28.225Z,1.24
2023-02-08T16:25:29.711Z,1.14
2023-02-08T16:28:33.558Z,1.03
2023-02-08T16:31:35.797Z,0.84
2023-02-08T16:34:38.580Z,0.66
2023-02-08T16:37:40.262Z,0.44
2023-02-08T16:40:48.921Z,0.24
2023-02-08T16:44:22.625Z,0.02
2023-02-08T16:47:35.278Z,-0.10
2023-02-08T16:50:38.237Z,-0.27
2023-02-08T16:53:42.599Z,-0.50
2023-02-08T16:56:46.569Z,-0.63
2023-02-08T16:59:48.098Z,-0.74
2023-02-08T17:02:50.552Z,-0.75
2023-02-08T17:05:52.545Z,-0.79
2023-02-08T17:08:54.051Z,-0.88
2023-02-08T17:11:55.558Z,-0.98
2023-02-08T17:14:57.028Z,-1.04
2023-02-08T17:17:58.562Z,-1.10
2023-02-08T17:21:01.565Z,-1.18
2023-02-08T17:24:03.268Z,-1.18
2023-02-08T17:27:05.037Z,-1.22
2023-02-08T17:30:06.853Z,-1.30
2023-02-08T17:33:11.570Z,-1.35
2023-02-08T17:36:14.724Z,-1.41
2023-02-08T17:39:17.812Z,-1.37
2023-02-08T17:42:19.269Z,-1.31
2023-02-08T17:45:21.185Z,-1.25
2023-02-08T17:48:22.652Z,-1.33
2023-02-08T17:51:24.685Z,-1.39
2023-02-08T17:54:26.134Z,-1.43
2023-02-08T17:57:30.389Z,-1.51
2023-02-08T18:00:34.590Z,-1.64
2023-02-08T18:03:36.571Z,-1.63
2023-02-08T18:06:38.083Z,-1.72
2023-02-08T18:09:39.520Z,-1.76
2023-02-08T18:12:41.656Z,-1.76
2023-02-08T18:15:44.289Z,-1.84
2023-02-08T18:18:46.060Z,-1.97
2023-02-08T18:21:47.566Z,-2.06
2023-02-08T18:24:49.164Z,-2.10
2023-02-08T18:27:50.669Z,-2.19
2023-02-08T18:30:52.310Z,-2.28
2023-02-08T18:33:54.402Z,-2.29
2023-02-08T18:36:55.994Z,-2.23
2023-02-08T18:39:57.529Z,-2.31
2023-02-08T18:42:58.958Z,-2.34
2023-02-08T18:46:12.528Z,-2.43
2023-02-08T18:49:15.997Z,-2.39
2023-02-08T18:52:17.472Z,-2.39
2023-02-08T18:55:18.905Z,-2.42
2023-02-08T18:58:20.829Z,-2.46
2023-02-08T19:01:24.294Z,-2.50
2023-02-08T19:04:26.352Z,-2.52
2023-02-08T19:07:27.833Z,-2.57
2023-02-08T19:10:29.248Z,-2.58
2023-02-08T19:13:31.764Z,-2.63
2023-02-08T19:16:35.846Z,-2.69
2023-02-08T19:19:37.351Z,-2.75
2023-02-08T19:22:38.819Z,-2.79
2023-02-08T19:25:40.351Z,-2.78
2023-02-08T19:28:41.894Z,-2.85
2023-02-08T19:31:44.269Z,-2.88
2023-02-08T19:34:45.838Z,-2.85
2023-02-08T19:37:50.399Z,-2.86
2023-02-08T19:40:55.418Z,-2.90
2023-02-08T19:43:56.899Z,-3.04
2023-02-08T19:46:58.606Z,-2.99
2023-02-08T19:50:00.149Z,-2.97
2023-02-08T19:53:01.759Z,-2.89
2023-02-08T19:56:08.617Z,-2.86
2023-02-08T19:59:22.495Z,-2.78
2023-02-08T20:02:27.235Z,-2.75
2023-02-08T20:05:28.814Z,-2.71
2023-02-08T20:08:30.619Z,-2.69
2023-02-08T20:11:37.083Z,-2.68
2023-02-08T20:14:40.137Z,-2.67
2023-02-08T20:17:42.373Z,-2.58
2023-02-08T20:20:44.045Z,-2.49
2023-02-08T20:23:45.831Z,-2.43
2023-02-08T20:26:48.157Z,-2.36
2023-02-08T20:29:49.624Z,-2.43
2023-02-08T20:32:52.723Z,-2.53
2023-02-08T20:35:55.295Z,-2.58
2023-02-08T20:38:57.961Z,-2.57
2023-02-08T20:41:59.442Z,-2.52
2023-02-08T20:45:00.946Z,-2.54
2023-02-08T20:48:02.397Z,-2.67
2023-02-08T20:51:06.099Z,-2.63
2023-02-08T20:54:07.736Z,-2.67
2023-02-08T20:57:11.091Z,-2.62
2023-02-08T21:00:13.405Z,-2.65
2023-02-08T21:03:15.082Z,-2.68
2023-02-08T21:06:19.707Z,-2.72
2023-02-08T21:09:21.281Z,-2.77
2023-02-08T21:12:22.827Z,-2.84
2023-02-08T21:15:24.461Z,-2.82
2023-02-08T21:18:25.926Z,-2.84
2023-02-08T21:21:28.238Z,-2.92
2023-02-08T21:24:30.785Z,-2.99
2023-02-08T21:27:32.336Z,-2.99
2023-02-08T21:30:33.895Z,-3.08
2023-02-08T21:33:35.488Z,-3.09
2023-02-08T21:36:37.096Z,-3.14
2023-02-08T21:39:38.678Z,-3.10
2023-02-08T21:42:40.235Z,-3.12
2023-02-08T21:45:41.900Z,-3.29
2023-02-08T21:49:02.245Z,-3.23
2023-02-08T21:52:22.267Z,-3.21
2023-02-08T21:55:23.802Z,-3.11
2023-02-08T21:58:25.567Z,-3.09
2023-02-08T22:01:27.033Z,-3.12
2023-02-08T22:04:28.603Z,-3.19
2023-02-08T22:07:42.179Z,-3.23
2023-02-08T22:10:53.354Z,-3.30
2023-02-08T22:13:59.188Z,-3.32
2023-02-08T22:17:00.748Z,-3.37
2023-02-08T22:20:02.509Z,-3.34
2023-02-08T22:23:04.935Z,-3.35
2023-02-08T22:26:10.352Z,-3.38
2023-02-08T22:29:12.146Z,-3.36
2023-02-08T22:32:16.873Z,-3.33
2023-02-08T22:35:18.847Z,-3.30
2023-02-08T22:38:20.406Z,-3.37
2023-02-08T22:41:22.621Z,-3.41
2023-02-08T22:44:24.171Z,-3.37
2023-02-08T22:47:25.656Z,-3.45
2023-02-08T22:50:27.139Z,-3.54
2023-02-08T22:53:28.688Z,-3.57
2023-02-08T22:56:30.196Z,-3.62
2023-02-08T22:59:33.555Z,-3.68
2023-02-08T23:02:35.124Z,-3.65
2023-02-08T23:05:44.407Z,-3.62
2023-02-08T23:08:46.172Z,-3.60
2023-02-08T23:11:47.710Z,-3.62
2023-02-08T23:14:49.848Z,-3.69
2023-02-08T23:17:51.378Z,-3.73
2023-02-08T23:20:54.457Z,-3.79
2023-02-08T23:23:55.924Z,-3.80
2023-02-08T23:26:57.419Z,-3.84
2023-02-08T23:29:58.897Z,-3.88
2023-02-08T23:33:00.795Z,-3.87
2023-02-08T23:36:14.355Z,-4.00
2023-02-08T23:39:15.922Z,-4.04
2023-02-08T23:42:26.442Z,-4.03
2023-02-08T23:45:28.561Z,-3.97
2023-02-08T23:48:30.057Z,-4.07
2023-02-08T23:51:31.494Z,-4.11
2023-02-08T23:54:32.934Z,-4.22
2023-02-08T23:57:35.988Z,-4.30
